sensor_id;sensor_type;location;lat;lon;timestamp;pressure;altitude;pressure_sealevel;temperature;humidity
7376;BME280;3728;42.266;24.944;2022-07-22T00:00:28;99497.66;;;21.33;98.01
7376;BME280;3728;42.266;24.944;2022-07-22T00:02:55;99501.53;;;21.42;98.55
7376;BME280;3728;42.266;24.944;2022-07-22T00:05:23;99505.31;;;21.38;98.68
7376;BME280;3728;42.266;24.944;2022-07-22T00:07:50;99510.59;;;21.31;100.00
7376;BME280;3728;42.266;24.944;2022-07-22T00:10:18;99517.81;;;21.30;98.08
7376;BME280;3728;42.266;24.944;2022-07-22T00:12:45;99522.06;;;21.42;96.48
7376;BME280;3728;42.266;24.944;2022-07-22T00:15:15;99525.88;;;21.41;94.52
7376;BME280;3728;42.266;24.944;2022-07-22T00:17:43;99523.53;;;21.29;95.23
7376;BME280;3728;42.266;24.944;2022-07-22T00:20:10;99518.28;;;20.95;97.59
7376;BME280;3728;42.266;24.944;2022-07-22T00:22:37;99516.81;;;21.01;97.36
7376;BME280;3728;42.266;24.944;2022-07-22T00:25:05;99522.47;;;20.96;98.21
7376;BME280;3728;42.266;24.944;2022-07-22T00:27:32;99527.09;;;21.03;97.59
7376;BME280;3728;42.266;24.944;2022-07-22T00:29:59;99523.63;;;20.95;97.90
7376;BME280;3728;42.266;24.944;2022-07-22T00:32:27;99537.66;;;21.40;94.74
7376;BME280;3728;42.266;24.944;2022-07-22T00:34:55;99547.38;;;21.69;92.40
7376;BME280;3728;42.266;24.944;2022-07-22T00:37:22;99535.56;;;21.70;91.19
7376;BME280;3728;42.266;24.944;2022-07-22T00:39:50;99537.91;;;21.82;90.30
7376;BME280;3728;42.266;24.944;2022-07-22T00:42:18;99546.25;;;21.73;90.45
7376;BME280;3728;42.266;24.944;2022-07-22T00:44:49;99545.22;;;21.96;88.91
7376;BME280;3728;42.266;24.944;2022-07-22T00:47:17;99531.88;;;21.85;89.87
7376;BME280;3728;42.266;24.944;2022-07-22T00:49:44;99537.44;;;21.66;91.13
7376;BME280;3728;42.266;24.944;2022-07-22T00:52:12;99533.50;;;21.42;93.20
7376;BME280;3728;42.266;24.944;2022-07-22T00:54:39;99543.38;;;21.38;93.34
7376;BME280;3728;42.266;24.944;2022-07-22T00:57:07;99539.94;;;21.41;93.42
7376;BME280;3728;42.266;24.944;2022-07-22T00:59:35;99547.38;;;21.69;90.92
7376;BME280;3728;42.266;24.944;2022-07-22T01:02:02;99543.38;;;21.38;93.53
7376;BME280;3728;42.266;24.944;2022-07-22T01:04:30;99538.34;;;21.26;94.11
7376;BME280;3728;42.266;24.944;2022-07-22T01:06:57;99534.53;;;21.27;94.92
7376;BME280;3728;42.266;24.944;2022-07-22T01:09:25;99530.75;;;21.32;94.10
7376;BME280;3728;42.266;24.944;2022-07-22T01:11:52;99540.19;;;21.19;95.33
7376;BME280;3728;42.266;24.944;2022-07-22T01:14:19;99539.78;;;21.17;95.46
7376;BME280;3728;42.266;24.944;2022-07-22T01:16:47;99539.84;;;21.24;95.14
7376;BME280;3728;42.266;24.944;2022-07-22T01:19:16;99536.41;;;21.20;94.91
7376;BME280;3728;42.266;24.944;2022-07-22T01:21:43;99533.19;;;21.03;96.90
7376;BME280;3728;42.266;24.944;2022-07-22T01:24:10;99542.59;;;20.90;97.40
7376;BME280;3728;42.266;24.944;2022-07-22T01:26:38;99546.72;;;20.84;98.36
7376;BME280;3728;42.266;24.944;2022-07-22T01:29:07;99538.31;;;20.79;98.91
7376;BME280;3728;42.266;24.944;2022-07-22T01:31:35;99547.47;;;20.81;99.04
7376;BME280;3728;42.266;24.944;2022-07-22T01:34:03;99553.50;;;20.78;99.83
7376;BME280;3728;42.266;24.944;2022-07-22T01:36:34;99547.31;;;20.67;100.00
7376;BME280;3728;42.266;24.944;2022-07-22T01:39:03;99544.88;;;20.52;100.00
7376;BME280;3728;42.266;24.944;2022-07-22T01:41:31;99540.16;;;20.34;100.00
7376;BME280;3728;42.266;24.944;2022-07-22T01:43:58;99539.06;;;20.09;100.00
7376;BME280;3728;42.266;24.944;2022-07-22T01:46:26;99540.50;;;20.03;100.00
7376;BME280;3728;42.266;24.944;2022-07-22T01:48:53;99537.38;;;19.98;100.00
7376;BME280;3728;42.266;24.944;2022-07-22T01:51:21;99543.72;;;20.16;100.00
7376;BME280;3728;42.266;24.944;2022-07-22T01:53:49;99542.06;;;20.37;100.00
7376;BME280;3728;42.266;24.944;2022-07-22T01:56:17;99543.13;;;20.29;100.00
7376;BME280;3728;42.266;24.944;2022-07-22T01:58:48;99543.59;;;20.38;100.00
7376;BME280;3728;42.266;24.944;2022-07-22T02:01:20;99546.44;;;20.56;100.00
7376;BME280;3728;42.266;24.944;2022-07-22T02:03:48;99548.16;;;20.75;100.00
7376;BME280;3728;42.266;24.944;2022-07-22T02:06:15;99549.72;;;20.79;100.00
7376;BME280;3728;42.266;24.944;2022-07-22T02:08:43;99547.88;;;20.87;99.81
7376;BME280;3728;42.266;24.944;2022-07-22T02:11:12;99536.47;;;20.46;100.00
7376;BME280;3728;42.266;24.944;2022-07-22T02:14:03;99539.25;;;20.23;100.00
7376;BME280;3728;42.266;24.944;2022-07-22T02:16:30;99535.59;;;20.05;100.00
7376;BME280;3728;42.266;24.944;2022-07-22T02:18:57;99541.31;;;20.07;100.00
7376;BME280;3728;42.266;24.944;2022-07-22T02:21:26;99534.63;;;20.20;100.00
7376;BME280;3728;42.266;24.944;2022-07-22T02:23:58;99541.38;;;20.11;100.00
7376;BME280;3728;42.266;24.944;2022-07-22T02:26:25;99532.44;;;19.96;100.00
7376;BME280;3728;42.266;24.944;2022-07-22T02:28:52;99540.63;;;20.14;100.00
7376;BME280;3728;42.266;24.944;2022-07-22T02:31:21;99532.56;;;20.07;100.00
7376;BME280;3728;42.266;24.944;2022-07-22T02:33:49;99534.94;;;20.45;100.00
7376;BME280;3728;42.266;24.944;2022-07-22T02:36:17;99542.06;;;20.74;100.00
7376;BME280;3728;42.266;24.944;2022-07-22T02:38:46;99548.94;;;20.42;100.00
7376;BME280;3728;42.266;24.944;2022-07-22T02:41:14;99545.38;;;19.98;100.00
7376;BME280;3728;42.266;24.944;2022-07-22T02:43:48;99543.84;;;19.97;100.00
7376;BME280;3728;42.266;24.944;2022-07-22T02:46:16;99542.78;;;20.05;100.00
7376;BME280;3728;42.266;24.944;2022-07-22T02:48:44;99547.78;;;20.06;100.00
7376;BME280;3728;42.266;24.944;2022-07-22T02:51:13;99539.91;;;20.17;100.00
7376;BME280;3728;42.266;24.944;2022-07-22T02:53:40;99539.03;;;20.06;100.00
7376;BME280;3728;42.266;24.944;2022-07-22T02:56:07;99534.31;;;20.22;100.00
7376;BME280;3728;42.266;24.944;2022-07-22T02:58:35;99540.09;;;20.01;100.00
7376;BME280;3728;42.266;24.944;2022-07-22T03:01:02;99541.53;;;19.95;100.00
7376;BME280;3728;42.266;24.944;2022-07-22T03:03:37;99534.50;;;20.10;100.00
7376;BME280;3728;42.266;24.944;2022-07-22T03:06:05;99528.41;;;20.09;100.00
7376;BME280;3728;42.266;24.944;2022-07-22T03:08:38;99536.75;;;20.04;100.00
7376;BME280;3728;42.266;24.944;2022-07-22T03:11:05;99539.50;;;20.15;100.00
7376;BME280;3728;42.266;24.944;2022-07-22T03:13:33;99545.94;;;20.14;100.00
7376;BME280;3728;42.266;24.944;2022-07-22T03:16:00;99543.16;;;20.03;100.00
7376;BME280;3728;42.266;24.944;2022-07-22T03:18:27;99545.50;;;20.08;100.00
7376;BME280;3728;42.266;24.944;2022-07-22T03:20:55;99543.75;;;20.19;100.00
7376;BME280;3728;42.266;24.944;2022-07-22T03:23:22;99537.72;;;20.22;100.00
7376;BME280;3728;42.266;24.944;2022-07-22T03:25:50;99536.97;;;20.22;100.00
7376;BME280;3728;42.266;24.944;2022-07-22T03:28:17;99539.31;;;20.30;100.00
7376;BME280;3728;42.266;24.944;2022-07-22T03:30:44;99545.00;;;20.29;100.00
7376;BME280;3728;42.266;24.944;2022-07-22T03:33:14;99543.91;;;20.30;100.00
7376;BME280;3728;42.266;24.944;2022-07-22T03:35:41;99546.19;;;20.31;100.00
7376;BME280;3728;42.266;24.944;2022-07-22T03:38:09;99541.59;;;20.28;100.00
7376;BME280;3728;42.266;24.944;2022-07-22T03:40:37;99540.50;;;20.33;100.00
7376;BME280;3728;42.266;24.944;2022-07-22T03:43:04;99553.56;;;20.45;100.00
7376;BME280;3728;42.266;24.944;2022-07-22T03:45:32;99540.38;;;20.59;100.00
7376;BME280;3728;42.266;24.944;2022-07-22T03:47:59;99548.13;;;20.71;100.00
7376;BME280;3728;42.266;24.944;2022-07-22T03:50:33;99556.50;;;20.73;100.00
7376;BME280;3728;42.266;24.944;2022-07-22T03:53:00;99558.09;;;20.81;100.00
7376;BME280;3728;42.266;24.944;2022-07-22T03:55:28;99563.50;;;20.88;100.00
7376;BME280;3728;42.266;24.944;2022-07-22T03:57:56;99558.59;;;20.94;100.00
7376;BME280;3728;42.266;24.944;2022-07-22T04:00:27;99552.28;;;21.05;100.00
7376;BME280;3728;42.266;24.944;2022-07-22T04:02:56;99562.28;;;21.23;100.00
7376;BME280;3728;42.266;24.944;2022-07-22T04:05:45;99569.16;;;21.27;98.97
7376;BME280;3728;42.266;24.944;2022-07-22T04:08:17;99564.59;;;21.28;100.00
7376;BME280;3728;42.266;24.944;2022-07-22T04:10:45;99563.88;;;21.31;100.00
7376;BME280;3728;42.266;24.944;2022-07-22T04:13:13;99564.38;;;21.47;100.00
7376;BME280;3728;42.266;24.944;2022-07-22T04:15:53;99559.50;;;21.63;98.98
7376;BME280;3728;42.266;24.944;2022-07-22T04:18:20;99561.44;;;21.66;97.90
7376;BME280;3728;42.266;24.944;2022-07-22T04:20:48;99568.31;;;21.74;97.47
7376;BME280;3728;42.266;24.944;2022-07-22T04:23:18;99563.13;;;21.92;96.72
7376;BME280;3728;42.266;24.944;2022-07-22T04:25:49;99568.91;;;22.08;93.78
7376;BME280;3728;42.266;24.944;2022-07-22T04:28:16;99576.22;;;22.28;91.75
7376;BME280;3728;42.266;24.944;2022-07-22T04:30:43;99567.56;;;22.60;92.57
7376;BME280;3728;42.266;24.944;2022-07-22T04:33:11;99579.09;;;23.06;91.47
7376;BME280;3728;42.266;24.944;2022-07-22T04:35:38;99582.16;;;23.29;91.23
7376;BME280;3728;42.266;24.944;2022-07-22T04:38:18;99581.75;;;23.34;91.46
7376;BME280;3728;42.266;24.944;2022-07-22T04:40:58;99590.53;;;23.28;91.54
7376;BME280;3728;42.266;24.944;2022-07-22T04:43:26;99585.56;;;23.23;92.36
7376;BME280;3728;42.266;24.944;2022-07-22T04:45:55;99588.28;;;23.40;87.63
7376;BME280;3728;42.266;24.944;2022-07-22T04:48:25;99581.00;;;23.62;89.09
7376;BME280;3728;42.266;24.944;2022-07-22T04:50:53;99583.25;;;23.88;85.51
7376;BME280;3728;42.266;24.944;2022-07-22T04:53:20;99577.53;;;23.72;87.78
7376;BME280;3728;42.266;24.944;2022-07-22T04:56:08;99577.13;;;23.80;84.94
7376;BME280;3728;42.266;24.944;2022-07-22T04:58:36;99577.56;;;23.51;84.93
7376;BME280;3728;42.266;24.944;2022-07-22T05:01:03;99573.72;;;23.55;86.01
7376;BME280;3728;42.266;24.944;2022-07-22T05:03:33;99577.94;;;23.63;84.86
7376;BME280;3728;42.266;24.944;2022-07-22T05:06:02;99573.31;;;23.78;83.43
7376;BME280;3728;42.266;24.944;2022-07-22T05:08:36;99583.19;;;24.02;81.18
7376;BME280;3728;42.266;24.944;2022-07-22T05:11:03;99585.22;;;23.52;84.22
7376;BME280;3728;42.266;24.944;2022-07-22T05:13:32;99576.03;;;23.60;84.34
7376;BME280;3728;42.266;24.944;2022-07-22T05:16:06;99580.13;;;24.04;84.15
7376;BME280;3728;42.266;24.944;2022-07-22T05:18:35;99575.38;;;24.46;82.25
7376;BME280;3728;42.266;24.944;2022-07-22T05:21:04;99579.59;;;24.44;80.31
7376;BME280;3728;42.266;24.944;2022-07-22T05:23:33;99579.19;;;24.49;80.74
7376;BME280;3728;42.266;24.944;2022-07-22T05:26:04;99572.50;;;24.78;80.33
7376;BME280;3728;42.266;24.944;2022-07-22T05:28:31;99570.50;;;24.96;78.93
7376;BME280;3728;42.266;24.944;2022-07-22T05:31:00;99570.09;;;24.94;79.38
7376;BME280;3728;42.266;24.944;2022-07-22T05:33:28;99568.28;;;25.29;78.44
7376;BME280;3728;42.266;24.944;2022-07-22T05:35:56;99572.56;;;25.67;76.31
7376;BME280;3728;42.266;24.944;2022-07-22T05:38:28;99573.13;;;25.85;75.89
7376;BME280;3728;42.266;24.944;2022-07-22T05:40:58;99579.88;;;25.97;74.36
7376;BME280;3728;42.266;24.944;2022-07-22T05:43:25;99583.97;;;26.08;74.27
7376;BME280;3728;42.266;24.944;2022-07-22T05:45:53;99585.88;;;26.11;73.93
7376;BME280;3728;42.266;24.944;2022-07-22T05:48:21;99583.13;;;26.18;74.13
7376;BME280;3728;42.266;24.944;2022-07-22T05:50:48;99594.28;;;26.10;73.88
7376;BME280;3728;42.266;24.944;2022-07-22T05:53:16;99591.97;;;26.15;73.66
7376;BME280;3728;42.266;24.944;2022-07-22T05:55:43;99590.41;;;26.18;74.60
7376;BME280;3728;42.266;24.944;2022-07-22T05:58:11;99595.34;;;26.23;73.37
7376;BME280;3728;42.266;24.944;2022-07-22T06:00:39;99594.91;;;26.24;72.34
7376;BME280;3728;42.266;24.944;2022-07-22T06:03:08;99589.38;;;26.38;73.65
7376;BME280;3728;42.266;24.944;2022-07-22T06:05:43;99594.03;;;26.34;73.46
7376;BME280;3728;42.266;24.944;2022-07-22T06:08:11;99587.50;;;26.35;73.53
7376;BME280;3728;42.266;24.944;2022-07-22T06:10:45;99586.59;;;26.72;73.82
7376;BME280;3728;42.266;24.944;2022-07-22T06:13:13;99579.91;;;26.57;72.93
7376;BME280;3728;42.266;24.944;2022-07-22T06:15:41;99581.03;;;26.86;73.39
7376;BME280;3728;42.266;24.944;2022-07-22T06:18:09;99585.44;;;27.00;72.52
7376;BME280;3728;42.266;24.944;2022-07-22T06:20:36;99585.88;;;27.22;71.28
7376;BME280;3728;42.266;24.944;2022-07-22T06:23:04;99583.72;;;27.13;72.69
7376;BME280;3728;42.266;24.944;2022-07-22T06:25:33;99576.88;;;27.08;71.51
7376;BME280;3728;42.266;24.944;2022-07-22T06:28:38;99579.84;;;27.80;68.68
7376;BME280;3728;42.266;24.944;2022-07-22T06:31:07;99577.69;;;27.29;69.66
7376;BME280;3728;42.266;24.944;2022-07-22T06:33:35;99582.13;;;27.62;66.96
7376;BME280;3728;42.266;24.944;2022-07-22T06:36:03;99573.47;;;27.51;68.64
7376;BME280;3728;42.266;24.944;2022-07-22T06:38:31;99581.09;;;27.75;67.68
7376;BME280;3728;42.266;24.944;2022-07-22T06:41:18;99581.69;;;27.44;70.91
7376;BME280;3728;42.266;24.944;2022-07-22T06:44:12;99587.59;;;27.98;67.04
7376;BME280;3728;42.266;24.944;2022-07-22T06:47:06;99580.94;;;27.83;66.69
7376;BME280;3728;42.266;24.944;2022-07-22T06:49:35;99584.34;;;28.06;63.86
7376;BME280;3728;42.266;24.944;2022-07-22T06:52:04;99589.50;;;28.36;62.27
7376;BME280;3728;42.266;24.944;2022-07-22T06:54:32;99581.56;;;28.29;62.08
7376;BME280;3728;42.266;24.944;2022-07-22T06:57:01;99586.69;;;28.24;60.92
7376;BME280;3728;42.266;24.944;2022-07-22T06:59:32;99588.13;;;27.89;64.89
7376;BME280;3728;42.266;24.944;2022-07-22T07:02:04;99585.50;;;28.25;62.84
7376;BME280;3728;42.266;24.944;2022-07-22T07:04:36;99576.22;;;28.10;63.69
7376;BME280;3728;42.266;24.944;2022-07-22T07:07:04;99577.09;;;28.59;62.09
7376;BME280;3728;42.266;24.944;2022-07-22T07:09:32;99586.97;;;28.97;58.89
7376;BME280;3728;42.266;24.944;2022-07-22T07:12:16;99582.00;;;28.64;60.53
7376;BME280;3728;42.266;24.944;2022-07-22T07:15:10;99577.56;;;29.05;57.57
7376;BME280;3728;42.266;24.944;2022-07-22T07:17:54;99586.00;;;28.91;57.48
7376;BME280;3728;42.266;24.944;2022-07-22T07:20:23;99587.56;;;29.05;57.66
7376;BME280;3728;42.266;24.944;2022-07-22T07:22:50;99586.13;;;29.33;57.30
7376;BME280;3728;42.266;24.944;2022-07-22T07:25:19;99585.91;;;29.11;55.95
7376;BME280;3728;42.266;24.944;2022-07-22T07:27:50;99578.06;;;28.84;54.35
7376;BME280;3728;42.266;24.944;2022-07-22T07:30:26;99581.59;;;28.97;58.59
7376;BME280;3728;42.266;24.944;2022-07-22T07:32:54;99579.66;;;29.14;57.43
7376;BME280;3728;42.266;24.944;2022-07-22T07:35:21;99570.47;;;28.79;56.24
7376;BME280;3728;42.266;24.944;2022-07-22T07:37:54;99571.09;;;28.51;57.37
7376;BME280;3728;42.266;24.944;2022-07-22T07:40:22;99579.22;;;28.99;57.90
7376;BME280;3728;42.266;24.944;2022-07-22T07:42:49;99586.81;;;29.21;55.14
7376;BME280;3728;42.266;24.944;2022-07-22T07:45:29;99586.75;;;29.24;54.85
7376;BME280;3728;42.266;24.944;2022-07-22T07:47:56;99580.31;;;29.02;56.17
7376;BME280;3728;42.266;24.944;2022-07-22T07:50:25;99579.41;;;29.25;54.31
7376;BME280;3728;42.266;24.944;2022-07-22T07:52:53;99579.69;;;29.59;53.18
7376;BME280;3728;42.266;24.944;2022-07-22T07:55:23;99581.84;;;29.35;55.14
7376;BME280;3728;42.266;24.944;2022-07-22T07:57:51;99588.78;;;29.65;54.44
7376;BME280;3728;42.266;24.944;2022-07-22T08:00:24;99594.50;;;29.67;55.38
7376;BME280;3728;42.266;24.944;2022-07-22T08:02:56;99579.97;;;29.48;54.81
7376;BME280;3728;42.266;24.944;2022-07-22T08:05:27;99583.25;;;29.85;53.66
7376;BME280;3728;42.266;24.944;2022-07-22T08:07:57;99587.03;;;30.28;52.45
7376;BME280;3728;42.266;24.944;2022-07-22T08:10:25;99588.47;;;30.71;51.69
7376;BME280;3728;42.266;24.944;2022-07-22T08:13:16;99583.69;;;31.00;50.96
7376;BME280;3728;42.266;24.944;2022-07-22T08:16:00;99583.53;;;31.63;48.66
7376;BME280;3728;42.266;24.944;2022-07-22T08:18:28;99586.56;;;31.87;46.44
7376;BME280;3728;42.266;24.944;2022-07-22T08:20:56;99579.44;;;31.11;47.51
7376;BME280;3728;42.266;24.944;2022-07-22T08:23:44;99578.72;;;31.33;47.54
7376;BME280;3728;42.266;24.944;2022-07-22T08:26:12;99575.72;;;31.87;47.12
7376;BME280;3728;42.266;24.944;2022-07-22T08:28:39;99579.09;;;32.21;44.58
7376;BME280;3728;42.266;24.944;2022-07-22T08:31:06;99569.81;;;31.57;46.28
7376;BME280;3728;42.266;24.944;2022-07-22T08:33:34;99574.72;;;30.53;48.48
7376;BME280;3728;42.266;24.944;2022-07-22T08:36:03;99571.34;;;30.23;50.52
7376;BME280;3728;42.266;24.944;2022-07-22T08:38:31;99570.50;;;31.02;48.52
7376;BME280;3728;42.266;24.944;2022-07-22T08:41:00;99567.78;;;31.36;47.16
7376;BME280;3728;42.266;24.944;2022-07-22T08:43:34;99568.34;;;30.84;49.24
7376;BME280;3728;42.266;24.944;2022-07-22T08:46:03;99568.22;;;31.47;48.60
7376;BME280;3728;42.266;24.944;2022-07-22T08:48:49;99567.38;;;32.55;46.77
7376;BME280;3728;42.266;24.944;2022-07-22T08:51:36;99562.25;;;33.33;44.64
7376;BME280;3728;42.266;24.944;2022-07-22T08:54:20;99573.00;;;34.66;41.72
7376;BME280;3728;42.266;24.944;2022-07-22T08:56:49;99572.41;;;35.18;39.79
7376;BME280;3728;42.266;24.944;2022-07-22T08:59:18;99562.66;;;34.04;41.99
7376;BME280;3728;42.266;24.944;2022-07-22T09:02:21;99572.22;;;34.32;40.46
7376;BME280;3728;42.266;24.944;2022-07-22T09:05:00;99571.78;;;33.56;41.30
7376;BME280;3728;42.266;24.944;2022-07-22T09:07:48;99562.72;;;33.59;40.68
7376;BME280;3728;42.266;24.944;2022-07-22T09:10:33;99565.06;;;34.53;39.36
7376;BME280;3728;42.266;24.944;2022-07-22T09:13:20;99580.16;;;34.87;40.40
7376;BME280;3728;42.266;24.944;2022-07-22T09:15:54;99576.75;;;35.78;38.26
7376;BME280;3728;42.266;24.944;2022-07-22T09:21:38;99572.75;;;37.27;34.65
7376;BME280;3728;42.266;24.944;2022-07-22T09:24:26;99577.56;;;38.77;33.21
7376;BME280;3728;42.266;24.944;2022-07-22T09:27:26;99582.59;;;37.19;33.83
7376;BME280;3728;42.266;24.944;2022-07-22T09:30:28;99562.50;;;37.67;33.45
7376;BME280;3728;42.266;24.944;2022-07-22T09:33:07;99576.69;;;38.60;34.79
7376;BME280;3728;42.266;24.944;2022-07-22T09:35:40;99571.91;;;39.89;30.99
7376;BME280;3728;42.266;24.944;2022-07-22T09:38:16;99564.66;;;39.81;33.61
7376;BME280;3728;42.266;24.944;2022-07-22T09:40:47;99573.13;;;39.60;31.39
7376;BME280;3728;42.266;24.944;2022-07-22T09:43:18;99570.16;;;39.92;30.95
7376;BME280;3728;42.266;24.944;2022-07-22T09:48:17;99556.13;;;37.76;32.75
7376;BME280;3728;42.266;24.944;2022-07-22T09:50:55;99553.56;;;37.41;33.65
7376;BME280;3728;42.266;24.944;2022-07-22T09:53:33;99553.31;;;37.19;35.34
7376;BME280;3728;42.266;24.944;2022-07-22T09:56:07;99556.25;;;37.87;33.78
7376;BME280;3728;42.266;24.944;2022-07-22T09:58:35;99553.63;;;38.72;34.38
7376;BME280;3728;42.266;24.944;2022-07-22T10:01:10;99547.22;;;36.89;36.32
7376;BME280;3728;42.266;24.944;2022-07-22T10:03:39;99537.38;;;36.77;37.06
7376;BME280;3728;42.266;24.944;2022-07-22T10:06:08;99544.50;;;38.12;32.30
7376;BME280;3728;42.266;24.944;2022-07-22T10:08:38;99541.84;;;38.66;34.10
7376;BME280;3728;42.266;24.944;2022-07-22T10:11:07;99549.94;;;39.89;31.39
7376;BME280;3728;42.266;24.944;2022-07-22T10:13:38;99537.72;;;39.79;31.58
7376;BME280;3728;42.266;24.944;2022-07-22T10:16:09;99539.91;;;40.47;30.28
7376;BME280;3728;42.266;24.944;2022-07-22T10:18:37;99536.53;;;40.87;29.89
7376;BME280;3728;42.266;24.944;2022-07-22T10:21:08;99534.91;;;41.14;29.65
7376;BME280;3728;42.266;24.944;2022-07-22T10:24:07;99529.88;;;41.59;28.06
7376;BME280;3728;42.266;24.944;2022-07-22T10:26:54;99530.28;;;40.92;29.28
7376;BME280;3728;42.266;24.944;2022-07-22T10:34:43;99515.97;;;39.48;30.97
7376;BME280;3728;42.266;24.944;2022-07-22T10:40:19;99510.72;;;40.33;30.13
7376;BME280;3728;42.266;24.944;2022-07-22T10:45:48;99512.59;;;38.94;33.21
7376;BME280;3728;42.266;24.944;2022-07-22T10:48:17;99513.28;;;39.76;30.18
7376;BME280;3728;42.266;24.944;2022-07-22T10:51:09;99513.59;;;40.79;30.32
7376;BME280;3728;42.266;24.944;2022-07-22T10:56:34;99508.41;;;41.17;29.77
7376;BME280;3728;42.266;24.944;2022-07-22T10:59:12;99511.34;;;42.19;27.80
7376;BME280;3728;42.266;24.944;2022-07-22T11:01:46;99509.94;;;42.12;26.74
7376;BME280;3728;42.266;24.944;2022-07-22T11:04:16;99497.03;;;43.06;27.51
7376;BME280;3728;42.266;24.944;2022-07-22T11:06:52;99500.53;;;44.02;25.13
7376;BME280;3728;42.266;24.944;2022-07-22T11:09:30;99504.72;;;44.95;22.94
7376;BME280;3728;42.266;24.944;2022-07-22T11:11:58;99498.59;;;45.43;23.41
7376;BME280;3728;42.266;24.944;2022-07-22T11:14:33;99492.25;;;44.41;22.53
7376;BME280;3728;42.266;24.944;2022-07-22T11:17:10;99484.00;;;42.88;24.76
7376;BME280;3728;42.266;24.944;2022-07-22T11:19:40;99493.44;;;44.19;25.52
7376;BME280;3728;42.266;24.944;2022-07-22T11:22:09;99483.00;;;45.32;23.58
7376;BME280;3728;42.266;24.944;2022-07-22T11:24:37;99485.28;;;46.47;22.26
7376;BME280;3728;42.266;24.944;2022-07-22T11:27:14;99483.78;;;47.04;21.94
7376;BME280;3728;42.266;24.944;2022-07-22T11:29:42;99488.72;;;48.49;20.03
7376;BME280;3728;42.266;24.944;2022-07-22T11:32:14;99483.06;;;49.29;19.16
7376;BME280;3728;42.266;24.944;2022-07-22T11:34:45;99471.06;;;49.85;19.26
7376;BME280;3728;42.266;24.944;2022-07-22T11:37:20;99469.53;;;49.92;18.89
7376;BME280;3728;42.266;24.944;2022-07-22T11:39:54;99464.09;;;49.60;18.99
7376;BME280;3728;42.266;24.944;2022-07-22T11:42:25;99465.56;;;50.29;18.27
7376;BME280;3728;42.266;24.944;2022-07-22T11:44:54;99461.38;;;50.55;17.95
7376;BME280;3728;42.266;24.944;2022-07-22T11:47:21;99454.97;;;49.59;18.48
7376;BME280;3728;42.266;24.944;2022-07-22T11:49:49;99448.69;;;47.75;18.26
7376;BME280;3728;42.266;24.944;2022-07-22T11:52:16;99437.56;;;45.69;19.91
7376;BME280;3728;42.266;24.944;2022-07-22T11:54:46;99437.91;;;46.73;19.68
7376;BME280;3728;42.266;24.944;2022-07-22T11:57:14;99439.28;;;47.17;20.04
7376;BME280;3728;42.266;24.944;2022-07-22T11:59:41;99429.28;;;46.33;20.30
7376;BME280;3728;42.266;24.944;2022-07-22T12:02:10;99429.50;;;45.58;20.07
7376;BME280;3728;42.266;24.944;2022-07-22T12:04:40;99427.38;;;45.02;21.08
7376;BME280;3728;42.266;24.944;2022-07-22T12:07:10;99427.69;;;45.81;20.30
7376;BME280;3728;42.266;24.944;2022-07-22T12:09:39;99424.00;;;44.96;19.14
7376;BME280;3728;42.266;24.944;2022-07-22T12:12:09;99420.19;;;46.91;18.28
7376;BME280;3728;42.266;24.944;2022-07-22T12:14:45;99421.63;;;48.45;17.70
7376;BME280;3728;42.266;24.944;2022-07-22T12:17:15;99418.00;;;47.42;18.19
7376;BME280;3728;42.266;24.944;2022-07-22T12:19:43;99412.47;;;47.27;18.76
7376;BME280;3728;42.266;24.944;2022-07-22T12:22:12;99402.91;;;46.55;18.02
7376;BME280;3728;42.266;24.944;2022-07-22T12:24:45;99398.69;;;45.82;18.80
7376;BME280;3728;42.266;24.944;2022-07-22T12:27:15;99407.38;;;47.94;17.73
7376;BME280;3728;42.266;24.944;2022-07-22T12:29:44;99404.22;;;49.26;15.54
7376;BME280;3728;42.266;24.944;2022-07-22T12:32:25;99395.47;;;49.30;16.14
7376;BME280;3728;42.266;24.944;2022-07-22T12:40:21;99401.19;;;52.11;13.21
7376;BME280;3728;42.266;24.944;2022-07-22T12:43:06;99394.06;;;48.97;16.32
7376;BME280;3728;42.266;24.944;2022-07-22T12:45:36;99394.75;;;49.05;16.25
7376;BME280;3728;42.266;24.944;2022-07-22T12:50:33;99388.75;;;47.49;16.80
7376;BME280;3728;42.266;24.944;2022-07-22T12:53:12;99385.41;;;46.17;17.24
7376;BME280;3728;42.266;24.944;2022-07-22T12:58:14;99374.13;;;46.81;17.77
7376;BME280;3728;42.266;24.944;2022-07-22T13:01:03;99384.81;;;46.69;18.59
7376;BME280;3728;42.266;24.944;2022-07-22T13:03:30;99373.97;;;45.84;19.24
7376;BME280;3728;42.266;24.944;2022-07-22T13:06:01;99373.59;;;46.90;18.31
7376;BME280;3728;42.266;24.944;2022-07-22T13:08:33;99382.13;;;47.29;18.08
7376;BME280;3728;42.266;24.944;2022-07-22T13:11:13;99379.94;;;45.96;18.33
7376;BME280;3728;42.266;24.944;2022-07-22T13:13:41;99379.25;;;46.54;18.23
7376;BME280;3728;42.266;24.944;2022-07-22T13:16:12;99383.00;;;47.39;17.85
7376;BME280;3728;42.266;24.944;2022-07-22T13:18:40;99383.03;;;47.32;17.64
7376;BME280;3728;42.266;24.944;2022-07-22T13:21:07;99378.81;;;48.01;16.44
7376;BME280;3728;42.266;24.944;2022-07-22T13:23:34;99373.06;;;49.03;16.02
7376;BME280;3728;42.266;24.944;2022-07-22T13:26:02;99371.56;;;48.05;16.01
7376;BME280;3728;42.266;24.944;2022-07-22T13:28:29;99363.78;;;46.89;16.96
7376;BME280;3728;42.266;24.944;2022-07-22T13:30:56;99371.81;;;45.62;18.56
7376;BME280;3728;42.266;24.944;2022-07-22T13:33:24;99371.44;;;46.37;18.35
7376;BME280;3728;42.266;24.944;2022-07-22T13:35:51;99367.00;;;46.34;17.99
7376;BME280;3728;42.266;24.944;2022-07-22T13:38:18;99380.41;;;47.57;16.85
7376;BME280;3728;42.266;24.944;2022-07-22T13:40:46;99368.59;;;50.11;16.44
7376;BME280;3728;42.266;24.944;2022-07-22T13:43:22;99382.41;;;51.73;14.92
7376;BME280;3728;42.266;24.944;2022-07-22T13:45:50;99374.72;;;52.02;14.25
7376;BME280;3728;42.266;24.944;2022-07-22T13:48:18;99376.06;;;51.53;14.89
7376;BME280;3728;42.266;24.944;2022-07-22T13:50:47;99378.50;;;52.35;14.08
7376;BME280;3728;42.266;24.944;2022-07-22T13:53:15;99376.72;;;52.80;14.70
7376;BME280;3728;42.266;24.944;2022-07-22T13:55:42;99376.19;;;52.93;14.02
7376;BME280;3728;42.266;24.944;2022-07-22T13:58:10;99375.50;;;52.52;14.64
7376;BME280;3728;42.266;24.944;2022-07-22T14:00:40;99374.84;;;53.25;14.00